sensor_id;sensor_type;location;lat;lon;timestamp;P1;durP1;ratioP1;P2;durP2;ratioP2
28170;SDS011;15458;53.346;-1.688;2023-06-22T00:00:55;9.45;;;5.32;;
28170;SDS011;15458;53.346;-1.688;2023-06-22T00:03:22;7.63;;;4.35;;
28170;SDS011;15458;53.346;-1.688;2023-06-22T00:05:49;6.22;;;4.80;;
28170;SDS011;15458;53.346;-1.688;2023-06-22T00:08:16;7.47;;;4.28;;
28170;SDS011;15458;53.346;-1.688;2023-06-22T00:10:42;8.77;;;4.53;;
28170;SDS011;15458;53.346;-1.688;2023-06-22T00:13:09;6.38;;;4.43;;
28170;SDS011;15458;53.346;-1.688;2023-06-22T00:15:36;7.38;;;4.80;;
28170;SDS011;15458;53.346;-1.688;2023-06-22T00:18:03;12.23;;;4.80;;
28170;SDS011;15458;53.346;-1.688;2023-06-22T00:20:30;7.30;;;4.63;;
28170;SDS011;15458;53.346;-1.688;2023-06-22T00:22:56;11.38;;;4.50;;
28170;SDS011;15458;53.346;-1.688;2023-06-22T00:25:23;6.72;;;4.90;;
28170;SDS011;15458;53.346;-1.688;2023-06-22T00:27:49;7.97;;;4.57;;
28170;SDS011;15458;53.346;-1.688;2023-06-22T00:30:15;7.38;;;5.15;;
28170;SDS011;15458;53.346;-1.688;2023-06-22T00:32:41;7.18;;;4.95;;
28170;SDS011;15458;53.346;-1.688;2023-06-22T00:35:07;6.70;;;4.65;;
28170;SDS011;15458;53.346;-1.688;2023-06-22T00:37:35;5.32;;;4.20;;
28170;SDS011;15458;53.346;-1.688;2023-06-22T00:40:01;8.57;;;4.63;;
28170;SDS011;15458;53.346;-1.688;2023-06-22T00:42:28;8.85;;;4.60;;
28170;SDS011;15458;53.346;-1.688;2023-06-22T00:44:54;7.35;;;4.38;;
28170;SDS011;15458;53.346;-1.688;2023-06-22T00:47:19;7.00;;;4.78;;
28170;SDS011;15458;53.346;-1.688;2023-06-22T00:49:46;7.85;;;5.10;;
28170;SDS011;15458;53.346;-1.688;2023-06-22T00:52:13;7.45;;;4.68;;
28170;SDS011;15458;53.346;-1.688;2023-06-22T00:54:45;9.45;;;5.10;;
28170;SDS011;15458;53.346;-1.688;2023-06-22T00:57:14;7.43;;;5.15;;
28170;SDS011;15458;53.346;-1.688;2023-06-22T00:59:43;7.82;;;5.25;;
28170;SDS011;15458;53.346;-1.688;2023-06-22T01:02:09;8.45;;;4.97;;
28170;SDS011;15458;53.346;-1.688;2023-06-22T01:04:36;7.88;;;4.90;;
28170;SDS011;15458;53.346;-1.688;2023-06-22T01:10:31;6.13;;;4.45;;
28170;SDS011;15458;53.346;-1.688;2023-06-22T01:13:06;6.32;;;4.97;;
28170;SDS011;15458;53.346;-1.688;2023-06-22T01:15:38;9.98;;;4.78;;
28170;SDS011;15458;53.346;-1.688;2023-06-22T01:18:09;6.85;;;4.88;;
28170;SDS011;15458;53.346;-1.688;2023-06-22T01:20:36;11.27;;;4.88;;
28170;SDS011;15458;53.346;-1.688;2023-06-22T01:23:09;11.30;;;5.72;;
28170;SDS011;15458;53.346;-1.688;2023-06-22T01:28:46;8.75;;;4.70;;
28170;SDS011;15458;53.346;-1.688;2023-06-22T01:31:25;11.45;;;4.97;;
28170;SDS011;15458;53.346;-1.688;2023-06-22T01:33:55;8.88;;;5.03;;
28170;SDS011;15458;53.346;-1.688;2023-06-22T01:36:24;9.73;;;5.28;;
28170;SDS011;15458;53.346;-1.688;2023-06-22T01:38:51;7.25;;;4.60;;
28170;SDS011;15458;53.346;-1.688;2023-06-22T01:41:19;11.52;;;5.43;;
28170;SDS011;15458;53.346;-1.688;2023-06-22T01:43:45;8.00;;;4.88;;
28170;SDS011;15458;53.346;-1.688;2023-06-22T01:46:12;8.48;;;4.97;;
28170;SDS011;15458;53.346;-1.688;2023-06-22T01:48:39;8.50;;;4.90;;
28170;SDS011;15458;53.346;-1.688;2023-06-22T01:51:05;8.43;;;5.43;;
28170;SDS011;15458;53.346;-1.688;2023-06-22T01:53:31;11.23;;;4.82;;
28170;SDS011;15458;53.346;-1.688;2023-06-22T01:55:57;6.45;;;4.90;;
28170;SDS011;15458;53.346;-1.688;2023-06-22T01:58:25;6.60;;;5.10;;
28170;SDS011;15458;53.346;-1.688;2023-06-22T02:01:11;12.68;;;5.70;;
28170;SDS011;15458;53.346;-1.688;2023-06-22T02:03:45;7.38;;;5.43;;
28170;SDS011;15458;53.346;-1.688;2023-06-22T02:06:31;10.10;;;4.80;;
28170;SDS011;15458;53.346;-1.688;2023-06-22T02:09:02;7.15;;;5.20;;
28170;SDS011;15458;53.346;-1.688;2023-06-22T02:11:33;6.38;;;5.13;;
28170;SDS011;15458;53.346;-1.688;2023-06-22T02:14:01;8.85;;;5.07;;
28170;SDS011;15458;53.346;-1.688;2023-06-22T02:16:27;8.95;;;5.30;;
28170;SDS011;15458;53.346;-1.688;2023-06-22T02:18:57;7.60;;;4.63;;
28170;SDS011;15458;53.346;-1.688;2023-06-22T02:21:28;8.82;;;5.30;;
28170;SDS011;15458;53.346;-1.688;2023-06-22T02:23:54;8.90;;;5.80;;
28170;SDS011;15458;53.346;-1.688;2023-06-22T02:26:20;11.77;;;5.47;;
28170;SDS011;15458;53.346;-1.688;2023-06-22T02:28:46;7.10;;;5.22;;
28170;SDS011;15458;53.346;-1.688;2023-06-22T02:31:11;6.47;;;4.60;;
28170;SDS011;15458;53.346;-1.688;2023-06-22T02:33:37;5.90;;;4.38;;
28170;SDS011;15458;53.346;-1.688;2023-06-22T02:36:03;5.70;;;4.38;;
28170;SDS011;15458;53.346;-1.688;2023-06-22T02:38:30;7.85;;;4.53;;
28170;SDS011;15458;53.346;-1.688;2023-06-22T02:40:58;13.50;;;4.82;;
28170;SDS011;15458;53.346;-1.688;2023-06-22T02:43:24;7.03;;;4.72;;
28170;SDS011;15458;53.346;-1.688;2023-06-22T02:45:49;7.00;;;4.35;;
28170;SDS011;15458;53.346;-1.688;2023-06-22T02:48:15;5.97;;;4.50;;
28170;SDS011;15458;53.346;-1.688;2023-06-22T02:50:41;7.68;;;4.47;;
28170;SDS011;15458;53.346;-1.688;2023-06-22T02:53:06;7.57;;;5.25;;
28170;SDS011;15458;53.346;-1.688;2023-06-22T02:55:32;7.53;;;4.80;;
28170;SDS011;15458;53.346;-1.688;2023-06-22T02:57:57;8.43;;;4.78;;
28170;SDS011;15458;53.346;-1.688;2023-06-22T03:00:24;7.68;;;4.70;;
28170;SDS011;15458;53.346;-1.688;2023-06-22T03:02:55;7.30;;;5.15;;
28170;SDS011;15458;53.346;-1.688;2023-06-22T03:05:22;6.57;;;4.90;;
28170;SDS011;15458;53.346;-1.688;2023-06-22T03:07:48;7.25;;;4.57;;
28170;SDS011;15458;53.346;-1.688;2023-06-22T03:10:14;6.07;;;4.63;;
28170;SDS011;15458;53.346;-1.688;2023-06-22T03:12:40;6.78;;;4.85;;
28170;SDS011;15458;53.346;-1.688;2023-06-22T03:15:08;10.00;;;4.82;;
28170;SDS011;15458;53.346;-1.688;2023-06-22T03:17:35;8.90;;;5.60;;
28170;SDS011;15458;53.346;-1.688;2023-06-22T03:20:02;6.10;;;4.45;;
28170;SDS011;15458;53.346;-1.688;2023-06-22T03:22:36;9.43;;;4.95;;
28170;SDS011;15458;53.346;-1.688;2023-06-22T03:25:02;8.98;;;4.55;;
28170;SDS011;15458;53.346;-1.688;2023-06-22T03:27:29;7.20;;;4.93;;
28170;SDS011;15458;53.346;-1.688;2023-06-22T03:29:56;7.72;;;4.90;;
28170;SDS011;15458;53.346;-1.688;2023-06-22T03:32:22;12.40;;;4.63;;
28170;SDS011;15458;53.346;-1.688;2023-06-22T03:34:48;8.25;;;4.82;;
28170;SDS011;15458;53.346;-1.688;2023-06-22T03:37:14;6.30;;;4.95;;
28170;SDS011;15458;53.346;-1.688;2023-06-22T03:39:40;8.13;;;4.78;;
28170;SDS011;15458;53.346;-1.688;2023-06-22T03:42:06;9.25;;;4.60;;
28170;SDS011;15458;53.346;-1.688;2023-06-22T03:44:32;5.78;;;4.43;;
28170;SDS011;15458;53.346;-1.688;2023-06-22T03:46:58;7.53;;;4.13;;
28170;SDS011;15458;53.346;-1.688;2023-06-22T03:49:24;7.40;;;4.60;;
28170;SDS011;15458;53.346;-1.688;2023-06-22T03:51:49;7.60;;;4.90;;
28170;SDS011;15458;53.346;-1.688;2023-06-22T03:54:15;6.35;;;4.30;;
28170;SDS011;15458;53.346;-1.688;2023-06-22T03:56:41;8.00;;;4.50;;
28170;SDS011;15458;53.346;-1.688;2023-06-22T03:59:06;8.68;;;4.30;;
28170;SDS011;15458;53.346;-1.688;2023-06-22T04:01:32;8.10;;;4.60;;
28170;SDS011;15458;53.346;-1.688;2023-06-22T04:03:57;7.55;;;4.35;;
28170;SDS011;15458;53.346;-1.688;2023-06-22T04:06:23;6.05;;;4.68;;
28170;SDS011;15458;53.346;-1.688;2023-06-22T04:08:49;6.18;;;4.70;;
28170;SDS011;15458;53.346;-1.688;2023-06-22T04:11:16;7.18;;;4.82;;
28170;SDS011;15458;53.346;-1.688;2023-06-22T04:13:43;10.70;;;4.88;;
28170;SDS011;15458;53.346;-1.688;2023-06-22T04:16:09;7.78;;;4.22;;
28170;SDS011;15458;53.346;-1.688;2023-06-22T04:18:35;5.80;;;4.50;;
28170;SDS011;15458;53.346;-1.688;2023-06-22T04:21:01;6.95;;;4.30;;
28170;SDS011;15458;53.346;-1.688;2023-06-22T04:23:27;6.43;;;5.00;;
28170;SDS011;15458;53.346;-1.688;2023-06-22T04:25:52;8.18;;;4.55;;
28170;SDS011;15458;53.346;-1.688;2023-06-22T04:28:18;7.85;;;4.75;;
28170;SDS011;15458;53.346;-1.688;2023-06-22T04:30:44;6.50;;;4.40;;
28170;SDS011;15458;53.346;-1.688;2023-06-22T04:33:13;7.47;;;4.35;;
28170;SDS011;15458;53.346;-1.688;2023-06-22T04:35:44;6.88;;;4.65;;
28170;SDS011;15458;53.346;-1.688;2023-06-22T04:38:11;5.72;;;4.38;;
28170;SDS011;15458;53.346;-1.688;2023-06-22T04:40:38;7.45;;;4.45;;
28170;SDS011;15458;53.346;-1.688;2023-06-22T04:43:04;9.27;;;5.03;;
28170;SDS011;15458;53.346;-1.688;2023-06-22T04:45:31;8.85;;;4.55;;
28170;SDS011;15458;53.346;-1.688;2023-06-22T04:48:02;7.47;;;4.22;;
28170;SDS011;15458;53.346;-1.688;2023-06-22T04:50:29;5.78;;;4.45;;
28170;SDS011;15458;53.346;-1.688;2023-06-22T04:52:54;7.25;;;4.72;;
28170;SDS011;15458;53.346;-1.688;2023-06-22T04:55:20;6.13;;;4.50;;
28170;SDS011;15458;53.346;-1.688;2023-06-22T04:57:46;6.40;;;4.18;;
28170;SDS011;15458;53.346;-1.688;2023-06-22T05:00:22;6.43;;;4.38;;
28170;SDS011;15458;53.346;-1.688;2023-06-22T05:02:48;9.30;;;4.85;;
28170;SDS011;15458;53.346;-1.688;2023-06-22T05:05:14;6.68;;;4.72;;
28170;SDS011;15458;53.346;-1.688;2023-06-22T05:07:44;6.82;;;5.07;;
28170;SDS011;15458;53.346;-1.688;2023-06-22T05:10:13;7.53;;;4.55;;
28170;SDS011;15458;53.346;-1.688;2023-06-22T05:12:39;8.20;;;4.10;;
28170;SDS011;15458;53.346;-1.688;2023-06-22T05:15:06;7.15;;;4.60;;
28170;SDS011;15458;53.346;-1.688;2023-06-22T05:17:33;7.50;;;4.53;;
28170;SDS011;15458;53.346;-1.688;2023-06-22T05:19:59;9.88;;;4.80;;
28170;SDS011;15458;53.346;-1.688;2023-06-22T05:22:24;7.68;;;5.03;;
28170;SDS011;15458;53.346;-1.688;2023-06-22T05:24:50;9.23;;;5.63;;
28170;SDS011;15458;53.346;-1.688;2023-06-22T05:27:16;9.30;;;4.95;;
28170;SDS011;15458;53.346;-1.688;2023-06-22T05:29:41;11.48;;;5.22;;
28170;SDS011;15458;53.346;-1.688;2023-06-22T05:32:07;7.97;;;5.53;;
28170;SDS011;15458;53.346;-1.688;2023-06-22T05:34:33;8.30;;;4.95;;
28170;SDS011;15458;53.346;-1.688;2023-06-22T05:36:59;6.47;;;4.80;;
28170;SDS011;15458;53.346;-1.688;2023-06-22T05:39:25;10.20;;;5.53;;
28170;SDS011;15458;53.346;-1.688;2023-06-22T05:41:51;10.82;;;5.88;;
28170;SDS011;15458;53.346;-1.688;2023-06-22T05:44:17;8.07;;;5.55;;
28170;SDS011;15458;53.346;-1.688;2023-06-22T05:46:43;8.52;;;5.75;;
28170;SDS011;15458;53.346;-1.688;2023-06-22T05:49:14;12.25;;;5.43;;
28170;SDS011;15458;53.346;-1.688;2023-06-22T05:51:41;10.45;;;5.00;;
28170;SDS011;15458;53.346;-1.688;2023-06-22T05:54:07;8.63;;;5.03;;
28170;SDS011;15458;53.346;-1.688;2023-06-22T05:56:38;12.40;;;5.10;;
28170;SDS011;15458;53.346;-1.688;2023-06-22T05:59:04;7.45;;;4.85;;
28170;SDS011;15458;53.346;-1.688;2023-06-22T06:01:29;11.07;;;5.20;;
28170;SDS011;15458;53.346;-1.688;2023-06-22T06:03:59;6.85;;;4.45;;
28170;SDS011;15458;53.346;-1.688;2023-06-22T06:06:25;10.02;;;5.05;;
28170;SDS011;15458;53.346;-1.688;2023-06-22T06:08:53;6.88;;;4.68;;
28170;SDS011;15458;53.346;-1.688;2023-06-22T06:11:19;10.02;;;5.10;;
28170;SDS011;15458;53.346;-1.688;2023-06-22T06:13:45;7.07;;;5.07;;
28170;SDS011;15458;53.346;-1.688;2023-06-22T06:16:10;10.18;;;4.78;;
28170;SDS011;15458;53.346;-1.688;2023-06-22T06:18:36;7.35;;;5.00;;
28170;SDS011;15458;53.346;-1.688;2023-06-22T06:21:02;12.25;;;4.97;;
28170;SDS011;15458;53.346;-1.688;2023-06-22T06:23:28;6.65;;;4.70;;
28170;SDS011;15458;53.346;-1.688;2023-06-22T06:25:53;8.07;;;4.38;;
28170;SDS011;15458;53.346;-1.688;2023-06-22T06:28:19;11.13;;;5.07;;
28170;SDS011;15458;53.346;-1.688;2023-06-22T06:30:45;9.00;;;4.60;;
28170;SDS011;15458;53.346;-1.688;2023-06-22T06:33:12;7.85;;;4.82;;
28170;SDS011;15458;53.346;-1.688;2023-06-22T06:35:38;6.80;;;4.88;;
28170;SDS011;15458;53.346;-1.688;2023-06-22T06:38:04;10.27;;;4.95;;
28170;SDS011;15458;53.346;-1.688;2023-06-22T06:40:29;6.32;;;4.32;;
28170;SDS011;15458;53.346;-1.688;2023-06-22T06:42:55;5.95;;;4.65;;
28170;SDS011;15458;53.346;-1.688;2023-06-22T06:45:22;6.38;;;4.53;;
28170;SDS011;15458;53.346;-1.688;2023-06-22T06:47:49;9.02;;;4.63;;
28170;SDS011;15458;53.346;-1.688;2023-06-22T06:50:16;7.85;;;4.22;;
28170;SDS011;15458;53.346;-1.688;2023-06-22T06:52:41;7.68;;;4.80;;
28170;SDS011;15458;53.346;-1.688;2023-06-22T06:55:08;7.82;;;4.13;;
28170;SDS011;15458;53.346;-1.688;2023-06-22T06:57:38;7.55;;;4.75;;
28170;SDS011;15458;53.346;-1.688;2023-06-22T07:00:05;7.53;;;4.65;;
28170;SDS011;15458;53.346;-1.688;2023-06-22T07:02:37;8.27;;;4.18;;
28170;SDS011;15458;53.346;-1.688;2023-06-22T07:05:05;9.10;;;4.57;;
28170;SDS011;15458;53.346;-1.688;2023-06-22T07:07:31;9.20;;;4.35;;
28170;SDS011;15458;53.346;-1.688;2023-06-22T07:09:57;8.38;;;4.75;;
28170;SDS011;15458;53.346;-1.688;2023-06-22T07:12:22;6.00;;;4.13;;
28170;SDS011;15458;53.346;-1.688;2023-06-22T07:14:48;8.68;;;3.95;;
28170;SDS011;15458;53.346;-1.688;2023-06-22T07:17:15;6.53;;;4.30;;
28170;SDS011;15458;53.346;-1.688;2023-06-22T07:19:40;7.32;;;4.53;;
28170;SDS011;15458;53.346;-1.688;2023-06-22T07:22:07;7.38;;;4.93;;
28170;SDS011;15458;53.346;-1.688;2023-06-22T07:24:32;6.20;;;4.20;;
28170;SDS011;15458;53.346;-1.688;2023-06-22T07:26:58;8.48;;;4.22;;
28170;SDS011;15458;53.346;-1.688;2023-06-22T07:29:24;11.07;;;4.05;;
28170;SDS011;15458;53.346;-1.688;2023-06-22T07:31:51;6.95;;;4.10;;
28170;SDS011;15458;53.346;-1.688;2023-06-22T07:34:17;7.05;;;4.47;;
28170;SDS011;15458;53.346;-1.688;2023-06-22T07:36:43;6.82;;;4.30;;
28170;SDS011;15458;53.346;-1.688;2023-06-22T07:39:09;6.78;;;4.07;;
28170;SDS011;15458;53.346;-1.688;2023-06-22T07:41:35;10.98;;;4.45;;
28170;SDS011;15458;53.346;-1.688;2023-06-22T07:44:02;11.05;;;4.50;;
28170;SDS011;15458;53.346;-1.688;2023-06-22T07:46:28;5.47;;;3.60;;
28170;SDS011;15458;53.346;-1.688;2023-06-22T07:48:55;6.78;;;4.07;;
28170;SDS011;15458;53.346;-1.688;2023-06-22T07:51:21;8.50;;;4.50;;
28170;SDS011;15458;53.346;-1.688;2023-06-22T07:53:47;6.75;;;3.70;;
28170;SDS011;15458;53.346;-1.688;2023-06-22T07:56:13;4.70;;;3.83;;
28170;SDS011;15458;53.346;-1.688;2023-06-22T07:58:44;8.65;;;4.32;;
28170;SDS011;15458;53.346;-1.688;2023-06-22T08:01:10;7.72;;;3.60;;
28170;SDS011;15458;53.346;-1.688;2023-06-22T08:03:36;6.82;;;3.50;;
28170;SDS011;15458;53.346;-1.688;2023-06-22T08:06:02;5.35;;;3.53;;
28170;SDS011;15458;53.346;-1.688;2023-06-22T08:08:28;7.57;;;4.03;;
28170;SDS011;15458;53.346;-1.688;2023-06-22T08:10:54;7.07;;;3.42;;
28170;SDS011;15458;53.346;-1.688;2023-06-22T08:13:20;6.60;;;3.28;;
28170;SDS011;15458;53.346;-1.688;2023-06-22T08:15:45;11.65;;;3.65;;
28170;SDS011;15458;53.346;-1.688;2023-06-22T08:18:11;10.73;;;3.55;;
28170;SDS011;15458;53.346;-1.688;2023-06-22T08:20:37;7.47;;;3.72;;
28170;SDS011;15458;53.346;-1.688;2023-06-22T08:23:02;5.75;;;3.42;;
28170;SDS011;15458;53.346;-1.688;2023-06-22T08:25:34;10.70;;;3.67;;
28170;SDS011;15458;53.346;-1.688;2023-06-22T08:28:01;5.53;;;3.67;;
28170;SDS011;15458;53.346;-1.688;2023-06-22T08:30:27;8.57;;;3.45;;
28170;SDS011;15458;53.346;-1.688;2023-06-22T08:32:53;11.00;;;3.38;;
28170;SDS011;15458;53.346;-1.688;2023-06-22T08:35:22;8.20;;;3.33;;
28170;SDS011;15458;53.346;-1.688;2023-06-22T08:37:48;9.07;;;3.40;;
28170;SDS011;15458;53.346;-1.688;2023-06-22T08:40:19;4.60;;;2.72;;
28170;SDS011;15458;53.346;-1.688;2023-06-22T08:42:45;5.38;;;3.03;;
28170;SDS011;15458;53.346;-1.688;2023-06-22T08:45:12;4.95;;;3.20;;
28170;SDS011;15458;53.346;-1.688;2023-06-22T08:47:39;6.80;;;3.67;;
28170;SDS011;15458;53.346;-1.688;2023-06-22T08:50:06;4.57;;;3.15;;
28170;SDS011;15458;53.346;-1.688;2023-06-22T08:52:33;6.00;;;3.28;;
28170;SDS011;15458;53.346;-1.688;2023-06-22T08:54:59;6.65;;;3.55;;
28170;SDS011;15458;53.346;-1.688;2023-06-22T08:57:25;6.00;;;3.72;;
28170;SDS011;15458;53.346;-1.688;2023-06-22T08:59:51;7.15;;;3.08;;
28170;SDS011;15458;53.346;-1.688;2023-06-22T09:02:18;5.10;;;3.10;;
28170;SDS011;15458;53.346;-1.688;2023-06-22T09:04:45;4.97;;;3.33;;
28170;SDS011;15458;53.346;-1.688;2023-06-22T09:07:11;6.07;;;3.20;;
28170;SDS011;15458;53.346;-1.688;2023-06-22T09:09:37;9.05;;;3.50;;
28170;SDS011;15458;53.346;-1.688;2023-06-22T09:12:03;7.90;;;3.45;;
28170;SDS011;15458;53.346;-1.688;2023-06-22T09:14:29;5.15;;;3.53;;
28170;SDS011;15458;53.346;-1.688;2023-06-22T09:16:54;9.25;;;3.17;;
28170;SDS011;15458;53.346;-1.688;2023-06-22T09:19:20;6.60;;;3.35;;
28170;SDS011;15458;53.346;-1.688;2023-06-22T09:21:46;9.30;;;3.50;;
28170;SDS011;15458;53.346;-1.688;2023-06-22T09:24:11;6.28;;;3.40;;
28170;SDS011;15458;53.346;-1.688;2023-06-22T09:26:37;8.02;;;3.25;;
28170;SDS011;15458;53.346;-1.688;2023-06-22T09:29:04;8.23;;;3.10;;
28170;SDS011;15458;53.346;-1.688;2023-06-22T09:31:31;7.65;;;3.38;;
28170;SDS011;15458;53.346;-1.688;2023-06-22T09:33:56;7.93;;;3.17;;
28170;SDS011;15458;53.346;-1.688;2023-06-22T09:36:22;5.68;;;3.15;;
28170;SDS011;15458;53.346;-1.688;2023-06-22T09:38:48;4.93;;;3.45;;
28170;SDS011;15458;53.346;-1.688;2023-06-22T09:41:20;4.88;;;2.88;;
28170;SDS011;15458;53.346;-1.688;2023-06-22T09:43:47;6.10;;;3.30;;
28170;SDS011;15458;53.346;-1.688;2023-06-22T09:46:15;5.38;;;3.35;;
28170;SDS011;15458;53.346;-1.688;2023-06-22T09:48:41;6.60;;;3.53;;
28170;SDS011;15458;53.346;-1.688;2023-06-22T09:51:07;7.50;;;3.90;;
28170;SDS011;15458;53.346;-1.688;2023-06-22T09:53:32;6.75;;;3.85;;
28170;SDS011;15458;53.346;-1.688;2023-06-22T09:55:59;5.78;;;3.25;;
28170;SDS011;15458;53.346;-1.688;2023-06-22T09:58:26;7.95;;;3.50;;
28170;SDS011;15458;53.346;-1.688;2023-06-22T10:00:52;7.32;;;3.42;;
28170;SDS011;15458;53.346;-1.688;2023-06-22T10:03:19;6.13;;;4.00;;
28170;SDS011;15458;53.346;-1.688;2023-06-22T10:05:45;6.72;;;4.28;;
28170;SDS011;15458;53.346;-1.688;2023-06-22T10:08:11;8.07;;;4.80;;
28170;SDS011;15458;53.346;-1.688;2023-06-22T10:10:36;9.27;;;6.00;;
28170;SDS011;15458;53.346;-1.688;2023-06-22T10:13:03;7.82;;;5.07;;
28170;SDS011;15458;53.346;-1.688;2023-06-22T10:15:36;7.22;;;4.78;;
28170;SDS011;15458;53.346;-1.688;2023-06-22T10:18:02;8.68;;;5.40;;
28170;SDS011;15458;53.346;-1.688;2023-06-22T10:20:28;7.35;;;5.32;;
28170;SDS011;15458;53.346;-1.688;2023-06-22T10:22:54;9.95;;;5.35;;
28170;SDS011;15458;53.346;-1.688;2023-06-22T10:25:21;8.82;;;5.35;;
28170;SDS011;15458;53.346;-1.688;2023-06-22T10:27:47;8.40;;;5.35;;
28170;SDS011;15458;53.346;-1.688;2023-06-22T10:30:13;6.80;;;4.32;;
28170;SDS011;15458;53.346;-1.688;2023-06-22T10:32:40;8.18;;;4.00;;
28170;SDS011;15458;53.346;-1.688;2023-06-22T10:35:10;10.88;;;3.70;;
28170;SDS011;15458;53.346;-1.688;2023-06-22T10:37:38;6.25;;;3.55;;
28170;SDS011;15458;53.346;-1.688;2023-06-22T10:40:04;6.78;;;4.05;;
28170;SDS011;15458;53.346;-1.688;2023-06-22T10:42:31;6.57;;;3.95;;
28170;SDS011;15458;53.346;-1.688;2023-06-22T10:44:56;9.45;;;4.20;;
28170;SDS011;15458;53.346;-1.688;2023-06-22T10:47:22;5.95;;;3.63;;
28170;SDS011;15458;53.346;-1.688;2023-06-22T10:49:47;6.13;;;3.97;;
28170;SDS011;15458;53.346;-1.688;2023-06-22T10:52:13;5.63;;;4.10;;
28170;SDS011;15458;53.346;-1.688;2023-06-22T10:54:39;6.35;;;4.35;;
28170;SDS011;15458;53.346;-1.688;2023-06-22T10:57:04;7.38;;;4.60;;
28170;SDS011;15458;53.346;-1.688;2023-06-22T10:59:30;6.53;;;4.05;;
28170;SDS011;15458;53.346;-1.688;2023-06-22T11:01:56;6.13;;;4.03;;
28170;SDS011;15458;53.346;-1.688;2023-06-22T11:04:23;6.50;;;3.67;;
28170;SDS011;15458;53.346;-1.688;2023-06-22T11:06:49;8.73;;;4.65;;
28170;SDS011;15458;53.346;-1.688;2023-06-22T11:09:14;8.77;;;3.90;;
28170;SDS011;15458;53.346;-1.688;2023-06-22T11:11:49;6.20;;;3.97;;
28170;SDS011;15458;53.346;-1.688;2023-06-22T11:14:18;6.95;;;2.80;;
28170;SDS011;15458;53.346;-1.688;2023-06-22T11:16:44;3.65;;;2.30;;
28170;SDS011;15458;53.346;-1.688;2023-06-22T11:19:11;3.53;;;2.47;;
28170;SDS011;15458;53.346;-1.688;2023-06-22T11:21:37;3.40;;;2.60;;
28170;SDS011;15458;53.346;-1.688;2023-06-22T11:24:03;3.10;;;2.80;;
28170;SDS011;15458;53.346;-1.688;2023-06-22T11:26:29;4.30;;;2.83;;
28170;SDS011;15458;53.346;-1.688;2023-06-22T11:28:55;4.63;;;2.97;;
28170;SDS011;15458;53.346;-1.688;2023-06-22T11:31:20;4.55;;;2.65;;
28170;SDS011;15458;53.346;-1.688;2023-06-22T11:33:46;3.70;;;2.85;;
28170;SDS011;15458;53.346;-1.688;2023-06-22T11:36:13;4.40;;;3.00;;
28170;SDS011;15458;53.346;-1.688;2023-06-22T11:38:39;4.10;;;3.40;;
28170;SDS011;15458;53.346;-1.688;2023-06-22T11:41:08;5.57;;;3.50;;
28170;SDS011;15458;53.346;-1.688;2023-06-22T11:43:34;6.13;;;3.50;;
28170;SDS011;15458;53.346;-1.688;2023-06-22T11:46:01;4.50;;;3.60;;
28170;SDS011;15458;53.346;-1.688;2023-06-22T11:48:28;4.72;;;3.53;;
28170;SDS011;15458;53.346;-1.688;2023-06-22T11:50:54;5.80;;;3.05;;
28170;SDS011;15458;53.346;-1.688;2023-06-22T11:53:24;2.95;;;2.58;;
28170;SDS011;15458;53.346;-1.688;2023-06-22T11:55:51;3.25;;;2.70;;
28170;SDS011;15458;53.346;-1.688;2023-06-22T11:58:17;3.08;;;2.50;;
28170;SDS011;15458;53.346;-1.688;2023-06-22T12:00:43;5.03;;;2.50;;
28170;SDS011;15458;53.346;-1.688;2023-06-22T12:03:10;4.35;;;2.50;;
28170;SDS011;15458;53.346;-1.688;2023-06-22T12:05:36;3.15;;;2.70;;
28170;SDS011;15458;53.346;-1.688;2023-06-22T12:08:03;3.33;;;2.47;;
28170;SDS011;15458;53.346;-1.688;2023-06-22T12:10:29;4.07;;;2.88;;
28170;SDS011;15458;53.346;-1.688;2023-06-22T12:12:54;3.28;;;2.75;;
28170;SDS011;15458;53.346;-1.688;2023-06-22T12:15:20;7.88;;;3.05;;
28170;SDS011;15458;53.346;-1.688;2023-06-22T12:17:46;6.38;;;3.05;;
28170;SDS011;15458;53.346;-1.688;2023-06-22T12:20:13;5.10;;;2.90;;
28170;SDS011;15458;53.346;-1.688;2023-06-22T12:22:39;4.50;;;2.92;;
28170;SDS011;15458;53.346;-1.688;2023-06-22T12:25:06;3.47;;;3.00;;
28170;SDS011;15458;53.346;-1.688;2023-06-22T12:27:32;4.47;;;3.05;;
28170;SDS011;15458;53.346;-1.688;2023-06-22T12:29:58;5.45;;;3.08;;
28170;SDS011;15458;53.346;-1.688;2023-06-22T12:32:23;5.18;;;3.83;;
28170;SDS011;15458;53.346;-1.688;2023-06-22T12:34:50;9.05;;;3.80;;
28170;SDS011;15458;53.346;-1.688;2023-06-22T12:37:16;6.20;;;3.75;;
28170;SDS011;15458;53.346;-1.688;2023-06-22T12:39:41;6.15;;;3.92;;
28170;SDS011;15458;53.346;-1.688;2023-06-22T12:42:07;5.97;;;4.07;;
28170;SDS011;15458;53.346;-1.688;2023-06-22T12:44:37;5.75;;;3.78;;
28170;SDS011;15458;53.346;-1.688;2023-06-22T12:47:04;4.35;;;3.70;;
28170;SDS011;15458;53.346;-1.688;2023-06-22T12:49:30;4.82;;;3.63;;
28170;SDS011;15458;53.346;-1.688;2023-06-22T12:51:55;4.88;;;3.90;;
28170;SDS011;15458;53.346;-1.688;2023-06-22T12:54:21;4.43;;;3.58;;
28170;SDS011;15458;53.346;-1.688;2023-06-22T12:56:47;7.32;;;3.88;;
28170;SDS011;15458;53.346;-1.688;2023-06-22T12:59:12;8.48;;;3.70;;
28170;SDS011;15458;53.346;-1.688;2023-06-22T13:01:38;6.57;;;3.70;;
28170;SDS011;15458;53.346;-1.688;2023-06-22T13:04:04;5.30;;;3.50;;
28170;SDS011;15458;53.346;-1.688;2023-06-22T13:06:30;6.60;;;3.25;;
28170;SDS011;15458;53.346;-1.688;2023-06-22T13:08:56;4.13;;;2.97;;
28170;SDS011;15458;53.346;-1.688;2023-06-22T13:11:22;4.82;;;2.95;;
28170;SDS011;15458;53.346;-1.688;2023-06-22T13:13:48;6.10;;;3.70;;
28170;SDS011;15458;53.346;-1.688;2023-06-22T13:16:13;6.63;;;3.47;;
28170;SDS011;15458;53.346;-1.688;2023-06-22T13:18:39;4.50;;;3.10;;
28170;SDS011;15458;53.346;-1.688;2023-06-22T13:21:04;6.75;;;3.30;;
28170;SDS011;15458;53.346;-1.688;2023-06-22T13:23:30;6.10;;;3.25;;
28170;SDS011;15458;53.346;-1.688;2023-06-22T13:25:57;4.38;;;3.17;;
28170;SDS011;15458;53.346;-1.688;2023-06-22T13:28:23;4.18;;;3.03;;
28170;SDS011;15458;53.346;-1.688;2023-06-22T13:30:49;7.03;;;3.50;;
28170;SDS011;15458;53.346;-1.688;2023-06-22T13:33:14;6.30;;;2.95;;
28170;SDS011;15458;53.346;-1.688;2023-06-22T13:35:40;3.88;;;3.00;;
28170;SDS011;15458;53.346;-1.688;2023-06-22T13:38:09;4.35;;;3.10;;
28170;SDS011;15458;53.346;-1.688;2023-06-22T13:40:36;5.50;;;2.80;;
28170;SDS011;15458;53.346;-1.688;2023-06-22T13:43:05;5.78;;;3.22;;
28170;SDS011;15458;53.346;-1.688;2023-06-22T13:45:31;4.72;;;2.88;;
28170;SDS011;15458;53.346;-1.688;2023-06-22T13:47:57;6.88;;;3.55;;
28170;SDS011;15458;53.346;-1.688;2023-06-22T13:50:22;5.15;;;2.92;;
28170;SDS011;15458;53.346;-1.688;2023-06-22T13:52:48;5.90;;;3.45;;
28170;SDS011;15458;53.346;-1.688;2023-06-22T13:55:14;5.68;;;3.25;;
28170;SDS011;15458;53.346;-1.688;2023-06-22T13:57:40;4.60;;;3.28;;
28170;SDS011;15458;53.346;-1.688;2023-06-22T14:00:06;5.78;;;3.00;;
28170;SDS011;15458;53.346;-1.688;2023-06-22T14:02:37;4.68;;;2.72;;
28170;SDS011;15458;53.346;-1.688;2023-06-22T14:05:03;3.63;;;3.08;;
28170;SDS011;15458;53.346;-1.688;2023-06-22T14:07:29;4.95;;;3.58;;
28170;SDS011;15458;53.346;-1.688;2023-06-22T14:09:55;8.27;;;4.00;;
28170;SDS011;15458;53.346;-1.688;2023-06-22T14:12:20;5.13;;;3.63;;
28170;SDS011;15458;53.346;-1.688;2023-06-22T14:14:46;8.07;;;3.80;;
28170;SDS011;15458;53.346;-1.688;2023-06-22T14:17:12;5.53;;;3.55;;
28170;SDS011;15458;53.346;-1.688;2023-06-22T14:19:38;9.85;;;4.22;;
28170;SDS011;15458;53.346;-1.688;2023-06-22T14:22:03;6.75;;;3.72;;
28170;SDS011;15458;53.346;-1.688;2023-06-22T14:24:29;7.38;;;3.53;;
28170;SDS011;15458;53.346;-1.688;2023-06-22T14:26:55;5.70;;;3.90;;
28170;SDS011;15458;53.346;-1.688;2023-06-22T14:29:21;6.18;;;3.88;;
28170;SDS011;15458;53.346;-1.688;2023-06-22T14:31:47;6.90;;;4.15;;
28170;SDS011;15458;53.346;-1.688;2023-06-22T14:34:14;5.55;;;4.30;;
28170;SDS011;15458;53.346;-1.688;2023-06-22T14:36:40;5.63;;;3.67;;